sensor_id;sensor_type;location;lat;lon;timestamp;P1;durP1;ratioP1;P2;durP2;ratioP2
7426;SDS011;3755;59.316;18.092;2022-10-22T00:02:12;6.90;;;3.60;;
7426;SDS011;3755;59.316;18.092;2022-10-22T00:04:43;5.60;;;3.80;;
7426;SDS011;3755;59.316;18.092;2022-10-22T00:07:15;5.17;;;3.57;;
7426;SDS011;3755;59.316;18.092;2022-10-22T00:09:47;8.40;;;3.60;;
7426;SDS011;3755;59.316;18.092;2022-10-22T00:12:28;6.27;;;3.67;;
7426;SDS011;3755;59.316;18.092;2022-10-22T00:14:57;6.23;;;3.30;;
7426;SDS011;3755;59.316;18.092;2022-10-22T00:17:43;8.50;;;3.67;;
7426;SDS011;3755;59.316;18.092;2022-10-22T00:20:14;6.70;;;3.60;;
7426;SDS011;3755;59.316;18.092;2022-10-22T00:22:44;7.73;;;4.37;;
7426;SDS011;3755;59.316;18.092;2022-10-22T00:25:12;5.13;;;3.47;;
7426;SDS011;3755;59.316;18.092;2022-10-22T00:27:44;4.93;;;3.50;;
7426;SDS011;3755;59.316;18.092;2022-10-22T00:30:23;6.47;;;3.40;;
7426;SDS011;3755;59.316;18.092;2022-10-22T00:35:50;6.90;;;3.60;;
7426;SDS011;3755;59.316;18.092;2022-10-22T00:38:18;8.63;;;3.90;;
7426;SDS011;3755;59.316;18.092;2022-10-22T00:41:00;5.23;;;3.40;;
7426;SDS011;3755;59.316;18.092;2022-10-22T00:43:30;4.93;;;3.40;;
7426;SDS011;3755;59.316;18.092;2022-10-22T00:46:01;9.13;;;4.03;;
7426;SDS011;3755;59.316;18.092;2022-10-22T00:48:33;5.03;;;3.53;;
7426;SDS011;3755;59.316;18.092;2022-10-22T00:51:14;6.33;;;4.03;;
7426;SDS011;3755;59.316;18.092;2022-10-22T00:53:44;5.40;;;3.83;;
7426;SDS011;3755;59.316;18.092;2022-10-22T00:56:28;5.50;;;3.47;;
7426;SDS011;3755;59.316;18.092;2022-10-22T00:58:57;7.20;;;4.30;;
7426;SDS011;3755;59.316;18.092;2022-10-22T01:01:32;5.70;;;3.80;;
7426;SDS011;3755;59.316;18.092;2022-10-22T01:04:03;7.07;;;3.60;;
7426;SDS011;3755;59.316;18.092;2022-10-22T01:06:38;5.10;;;3.30;;
7426;SDS011;3755;59.316;18.092;2022-10-22T01:09:10;5.77;;;3.90;;
7426;SDS011;3755;59.316;18.092;2022-10-22T01:11:50;6.23;;;3.30;;
7426;SDS011;3755;59.316;18.092;2022-10-22T01:14:42;5.67;;;3.30;;
7426;SDS011;3755;59.316;18.092;2022-10-22T01:17:24;4.90;;;3.50;;
7426;SDS011;3755;59.316;18.092;2022-10-22T01:20:19;7.47;;;3.60;;
7426;SDS011;3755;59.316;18.092;2022-10-22T01:26:27;4.93;;;3.60;;
7426;SDS011;3755;59.316;18.092;2022-10-22T01:29:24;6.60;;;3.37;;
7426;SDS011;3755;59.316;18.092;2022-10-22T01:31:57;5.93;;;3.03;;
7426;SDS011;3755;59.316;18.092;2022-10-22T01:34:37;6.40;;;3.77;;
7426;SDS011;3755;59.316;18.092;2022-10-22T01:37:27;7.70;;;3.30;;
7426;SDS011;3755;59.316;18.092;2022-10-22T01:39:57;4.20;;;2.97;;
7426;SDS011;3755;59.316;18.092;2022-10-22T01:42:28;6.50;;;3.67;;
7426;SDS011;3755;59.316;18.092;2022-10-22T01:45:13;5.00;;;3.40;;
7426;SDS011;3755;59.316;18.092;2022-10-22T01:47:44;5.70;;;3.43;;
7426;SDS011;3755;59.316;18.092;2022-10-22T01:53:32;5.13;;;3.13;;
7426;SDS011;3755;59.316;18.092;2022-10-22T01:56:09;4.17;;;3.03;;
7426;SDS011;3755;59.316;18.092;2022-10-22T01:58:51;5.47;;;3.40;;
7426;SDS011;3755;59.316;18.092;2022-10-22T02:01:30;4.37;;;3.23;;
7426;SDS011;3755;59.316;18.092;2022-10-22T02:04:10;4.40;;;3.03;;
7426;SDS011;3755;59.316;18.092;2022-10-22T02:06:43;5.50;;;3.27;;
7426;SDS011;3755;59.316;18.092;2022-10-22T02:09:18;5.47;;;3.07;;
7426;SDS011;3755;59.316;18.092;2022-10-22T02:11:50;4.30;;;2.97;;
7426;SDS011;3755;59.316;18.092;2022-10-22T02:14:33;5.17;;;2.90;;
7426;SDS011;3755;59.316;18.092;2022-10-22T02:17:21;5.93;;;3.27;;
7426;SDS011;3755;59.316;18.092;2022-10-22T02:19:53;4.97;;;3.00;;
7426;SDS011;3755;59.316;18.092;2022-10-22T02:22:23;4.80;;;3.20;;
7426;SDS011;3755;59.316;18.092;2022-10-22T02:24:52;8.67;;;2.80;;
7426;SDS011;3755;59.316;18.092;2022-10-22T02:27:21;5.60;;;2.70;;
7426;SDS011;3755;59.316;18.092;2022-10-22T02:29:55;5.37;;;3.10;;
7426;SDS011;3755;59.316;18.092;2022-10-22T02:32:39;5.50;;;2.80;;
7426;SDS011;3755;59.316;18.092;2022-10-22T02:35:11;5.60;;;2.80;;
7426;SDS011;3755;59.316;18.092;2022-10-22T02:37:42;4.53;;;2.80;;
7426;SDS011;3755;59.316;18.092;2022-10-22T02:40:18;4.77;;;2.57;;
7426;SDS011;3755;59.316;18.092;2022-10-22T02:42:46;6.00;;;2.87;;
7426;SDS011;3755;59.316;18.092;2022-10-22T02:45:28;4.47;;;2.93;;
7426;SDS011;3755;59.316;18.092;2022-10-22T02:47:59;5.73;;;2.97;;
7426;SDS011;3755;59.316;18.092;2022-10-22T02:50:27;4.97;;;3.10;;
7426;SDS011;3755;59.316;18.092;2022-10-22T02:52:54;4.63;;;2.90;;
7426;SDS011;3755;59.316;18.092;2022-10-22T02:55:23;5.27;;;2.90;;
7426;SDS011;3755;59.316;18.092;2022-10-22T02:57:52;6.37;;;2.63;;
7426;SDS011;3755;59.316;18.092;2022-10-22T03:00:20;3.87;;;2.90;;
7426;SDS011;3755;59.316;18.092;2022-10-22T03:02:51;4.80;;;2.60;;
7426;SDS011;3755;59.316;18.092;2022-10-22T03:05:28;7.00;;;3.10;;
7426;SDS011;3755;59.316;18.092;2022-10-22T03:07:56;9.87;;;2.93;;
7426;SDS011;3755;59.316;18.092;2022-10-22T03:10:37;9.70;;;3.00;;
7426;SDS011;3755;59.316;18.092;2022-10-22T03:13:09;5.53;;;2.87;;
7426;SDS011;3755;59.316;18.092;2022-10-22T03:15:37;6.53;;;3.40;;
7426;SDS011;3755;59.316;18.092;2022-10-22T03:18:04;4.30;;;2.70;;
7426;SDS011;3755;59.316;18.092;2022-10-22T03:20:36;6.40;;;2.97;;
7426;SDS011;3755;59.316;18.092;2022-10-22T03:23:03;6.37;;;3.50;;
7426;SDS011;3755;59.316;18.092;2022-10-22T03:25:33;3.90;;;2.67;;
7426;SDS011;3755;59.316;18.092;2022-10-22T03:28:04;4.00;;;2.70;;
7426;SDS011;3755;59.316;18.092;2022-10-22T03:30:33;3.97;;;2.67;;
7426;SDS011;3755;59.316;18.092;2022-10-22T03:33:02;3.80;;;2.70;;
7426;SDS011;3755;59.316;18.092;2022-10-22T03:35:29;5.83;;;3.03;;
7426;SDS011;3755;59.316;18.092;2022-10-22T03:38:00;4.43;;;2.60;;
7426;SDS011;3755;59.316;18.092;2022-10-22T03:40:31;4.13;;;2.60;;
7426;SDS011;3755;59.316;18.092;2022-10-22T03:43:01;6.40;;;2.90;;
7426;SDS011;3755;59.316;18.092;2022-10-22T03:45:29;6.20;;;2.60;;
7426;SDS011;3755;59.316;18.092;2022-10-22T03:47:56;3.67;;;2.80;;
7426;SDS011;3755;59.316;18.092;2022-10-22T03:50:24;5.20;;;2.50;;
7426;SDS011;3755;59.316;18.092;2022-10-22T03:53:09;4.80;;;2.87;;
7426;SDS011;3755;59.316;18.092;2022-10-22T03:55:42;3.57;;;2.33;;
7426;SDS011;3755;59.316;18.092;2022-10-22T03:58:09;4.97;;;2.80;;
7426;SDS011;3755;59.316;18.092;2022-10-22T04:00:37;4.20;;;2.73;;
7426;SDS011;3755;59.316;18.092;2022-10-22T04:03:07;6.67;;;2.57;;
7426;SDS011;3755;59.316;18.092;2022-10-22T04:05:35;5.03;;;2.67;;
7426;SDS011;3755;59.316;18.092;2022-10-22T04:08:13;5.77;;;3.17;;
7426;SDS011;3755;59.316;18.092;2022-10-22T04:10:49;6.40;;;3.57;;
7426;SDS011;3755;59.316;18.092;2022-10-22T04:13:31;6.57;;;3.27;;
7426;SDS011;3755;59.316;18.092;2022-10-22T04:16:07;4.80;;;2.83;;
7426;SDS011;3755;59.316;18.092;2022-10-22T04:18:44;3.73;;;2.53;;
7426;SDS011;3755;59.316;18.092;2022-10-22T04:21:16;5.37;;;2.93;;
7426;SDS011;3755;59.316;18.092;2022-10-22T04:23:56;3.70;;;2.80;;
7426;SDS011;3755;59.316;18.092;2022-10-22T04:26:37;4.27;;;2.33;;
7426;SDS011;3755;59.316;18.092;2022-10-22T04:29:07;4.13;;;2.70;;
7426;SDS011;3755;59.316;18.092;2022-10-22T04:31:38;3.33;;;2.43;;
7426;SDS011;3755;59.316;18.092;2022-10-22T04:34:11;3.80;;;2.63;;
7426;SDS011;3755;59.316;18.092;2022-10-22T04:36:39;6.53;;;2.90;;
7426;SDS011;3755;59.316;18.092;2022-10-22T04:39:11;3.83;;;2.57;;
7426;SDS011;3755;59.316;18.092;2022-10-22T04:41:47;5.53;;;2.77;;
7426;SDS011;3755;59.316;18.092;2022-10-22T04:44:20;4.77;;;2.50;;
7426;SDS011;3755;59.316;18.092;2022-10-22T04:46:48;6.53;;;3.20;;
7426;SDS011;3755;59.316;18.092;2022-10-22T04:49:15;9.60;;;3.87;;
7426;SDS011;3755;59.316;18.092;2022-10-22T04:51:43;4.67;;;3.20;;
7426;SDS011;3755;59.316;18.092;2022-10-22T05:00:20;7.33;;;2.80;;
7426;SDS011;3755;59.316;18.092;2022-10-22T05:02:48;6.07;;;3.03;;
7426;SDS011;3755;59.316;18.092;2022-10-22T05:05:17;4.10;;;2.50;;
7426;SDS011;3755;59.316;18.092;2022-10-22T05:07:45;3.57;;;2.70;;
7426;SDS011;3755;59.316;18.092;2022-10-22T05:10:27;4.63;;;2.77;;
7426;SDS011;3755;59.316;18.092;2022-10-22T05:16:29;5.33;;;3.10;;
7426;SDS011;3755;59.316;18.092;2022-10-22T05:19:19;4.63;;;2.50;;
7426;SDS011;3755;59.316;18.092;2022-10-22T05:21:56;6.20;;;3.00;;
7426;SDS011;3755;59.316;18.092;2022-10-22T05:24:26;6.07;;;3.00;;
7426;SDS011;3755;59.316;18.092;2022-10-22T05:27:08;4.20;;;2.70;;
7426;SDS011;3755;59.316;18.092;2022-10-22T05:29:49;5.57;;;2.90;;
7426;SDS011;3755;59.316;18.092;2022-10-22T05:35:18;5.72;;;2.90;;
7426;SDS011;3755;59.316;18.092;2022-10-22T05:37:46;4.57;;;2.85;;
7426;SDS011;3755;59.316;18.092;2022-10-22T05:40:13;6.77;;;3.00;;
7426;SDS011;3755;59.316;18.092;2022-10-22T05:42:41;5.30;;;2.58;;
7426;SDS011;3755;59.316;18.092;2022-10-22T05:45:09;3.42;;;2.22;;
7426;SDS011;3755;59.316;18.092;2022-10-22T05:47:39;6.57;;;3.00;;
7426;SDS011;3755;59.316;18.092;2022-10-22T05:50:21;5.25;;;2.92;;
7426;SDS011;3755;59.316;18.092;2022-10-22T05:53:02;5.53;;;3.20;;
7426;SDS011;3755;59.316;18.092;2022-10-22T05:55:30;5.97;;;3.07;;
7426;SDS011;3755;59.316;18.092;2022-10-22T05:58:03;4.30;;;2.73;;
7426;SDS011;3755;59.316;18.092;2022-10-22T06:00:34;4.67;;;2.60;;
7426;SDS011;3755;59.316;18.092;2022-10-22T06:03:04;5.63;;;2.73;;
7426;SDS011;3755;59.316;18.092;2022-10-22T06:05:47;5.03;;;2.87;;
7426;SDS011;3755;59.316;18.092;2022-10-22T06:08:15;8.63;;;2.60;;
7426;SDS011;3755;59.316;18.092;2022-10-22T06:10:42;6.63;;;2.50;;
7426;SDS011;3755;59.316;18.092;2022-10-22T06:13:09;10.63;;;2.80;;
7426;SDS011;3755;59.316;18.092;2022-10-22T06:15:37;4.47;;;2.50;;
7426;SDS011;3755;59.316;18.092;2022-10-22T06:18:07;4.70;;;2.70;;
7426;SDS011;3755;59.316;18.092;2022-10-22T06:20:49;5.65;;;3.00;;
7426;SDS011;3755;59.316;18.092;2022-10-22T06:23:17;4.37;;;2.87;;
7426;SDS011;3755;59.316;18.092;2022-10-22T06:25:56;5.47;;;2.90;;
7426;SDS011;3755;59.316;18.092;2022-10-22T06:28:24;6.32;;;3.10;;
7426;SDS011;3755;59.316;18.092;2022-10-22T06:31:05;3.95;;;2.90;;
7426;SDS011;3755;59.316;18.092;2022-10-22T06:33:34;4.33;;;2.97;;
7426;SDS011;3755;59.316;18.092;2022-10-22T06:36:13;5.33;;;3.03;;
7426;SDS011;3755;59.316;18.092;2022-10-22T06:38:43;5.47;;;3.13;;
7426;SDS011;3755;59.316;18.092;2022-10-22T06:41:14;5.13;;;3.13;;
7426;SDS011;3755;59.316;18.092;2022-10-22T06:43:56;4.82;;;3.28;;
7426;SDS011;3755;59.316;18.092;2022-10-22T06:46:25;7.17;;;3.13;;
7426;SDS011;3755;59.316;18.092;2022-10-22T06:48:56;4.40;;;3.22;;
7426;SDS011;3755;59.316;18.092;2022-10-22T06:51:27;4.60;;;3.27;;
7426;SDS011;3755;59.316;18.092;2022-10-22T06:54:09;5.00;;;3.15;;
7426;SDS011;3755;59.316;18.092;2022-10-22T06:56:38;5.20;;;3.30;;
7426;SDS011;3755;59.316;18.092;2022-10-22T06:59:05;5.43;;;3.13;;
7426;SDS011;3755;59.316;18.092;2022-10-22T07:01:35;5.85;;;3.78;;
7426;SDS011;3755;59.316;18.092;2022-10-22T07:07:19;4.20;;;3.40;;
7426;SDS011;3755;59.316;18.092;2022-10-22T07:09:48;5.23;;;3.30;;
7426;SDS011;3755;59.316;18.092;2022-10-22T07:12:32;8.27;;;3.42;;
7426;SDS011;3755;59.316;18.092;2022-10-22T07:15:14;4.78;;;3.28;;
7426;SDS011;3755;59.316;18.092;2022-10-22T07:17:57;5.50;;;3.37;;
7426;SDS011;3755;59.316;18.092;2022-10-22T07:20:28;4.70;;;3.20;;
7426;SDS011;3755;59.316;18.092;2022-10-22T07:25:50;6.57;;;3.38;;
7426;SDS011;3755;59.316;18.092;2022-10-22T07:28:20;5.47;;;3.40;;
7426;SDS011;3755;59.316;18.092;2022-10-22T07:31:01;6.57;;;3.87;;
7426;SDS011;3755;59.316;18.092;2022-10-22T07:33:46;4.20;;;3.30;;
7426;SDS011;3755;59.316;18.092;2022-10-22T07:36:27;6.67;;;3.70;;
7426;SDS011;3755;59.316;18.092;2022-10-22T07:39:02;5.93;;;3.33;;
7426;SDS011;3755;59.316;18.092;2022-10-22T07:42:04;6.82;;;4.22;;
7426;SDS011;3755;59.316;18.092;2022-10-22T07:44:48;4.97;;;3.80;;
7426;SDS011;3755;59.316;18.092;2022-10-22T07:47:36;8.20;;;3.72;;
7426;SDS011;3755;59.316;18.092;2022-10-22T07:50:18;5.97;;;3.55;;
7426;SDS011;3755;59.316;18.092;2022-10-22T07:52:46;10.70;;;3.88;;
7426;SDS011;3755;59.316;18.092;2022-10-22T07:55:29;9.38;;;3.63;;
7426;SDS011;3755;59.316;18.092;2022-10-22T07:58:15;10.55;;;4.25;;
7426;SDS011;3755;59.316;18.092;2022-10-22T08:00:57;10.05;;;4.03;;
7426;SDS011;3755;59.316;18.092;2022-10-22T08:03:39;6.27;;;4.50;;
7426;SDS011;3755;59.316;18.092;2022-10-22T08:06:24;9.18;;;4.53;;
7426;SDS011;3755;59.316;18.092;2022-10-22T08:08:51;13.40;;;4.32;;
7426;SDS011;3755;59.316;18.092;2022-10-22T08:17:40;8.63;;;4.78;;
7426;SDS011;3755;59.316;18.092;2022-10-22T08:20:21;6.85;;;5.05;;
7426;SDS011;3755;59.316;18.092;2022-10-22T08:23:03;8.47;;;5.30;;
7426;SDS011;3755;59.316;18.092;2022-10-22T08:25:43;6.53;;;4.70;;
7426;SDS011;3755;59.316;18.092;2022-10-22T08:28:18;7.13;;;4.70;;
7426;SDS011;3755;59.316;18.092;2022-10-22T08:30:49;6.43;;;5.07;;
7426;SDS011;3755;59.316;18.092;2022-10-22T08:36:55;7.88;;;5.00;;
7426;SDS011;3755;59.316;18.092;2022-10-22T08:39:23;7.45;;;4.65;;
7426;SDS011;3755;59.316;18.092;2022-10-22T08:42:18;9.87;;;5.20;;
7426;SDS011;3755;59.316;18.092;2022-10-22T08:45:27;7.25;;;4.60;;
7426;SDS011;3755;59.316;18.092;2022-10-22T08:48:18;5.78;;;4.93;;
7426;SDS011;3755;59.316;18.092;2022-10-22T08:50:56;7.90;;;5.13;;
7426;SDS011;3755;59.316;18.092;2022-10-22T08:53:31;6.27;;;4.70;;
7426;SDS011;3755;59.316;18.092;2022-10-22T08:56:20;6.43;;;4.32;;
7426;SDS011;3755;59.316;18.092;2022-10-22T08:59:05;7.88;;;4.82;;
7426;SDS011;3755;59.316;18.092;2022-10-22T09:01:53;7.70;;;4.80;;
7426;SDS011;3755;59.316;18.092;2022-10-22T09:04:22;9.38;;;5.75;;
7426;SDS011;3755;59.316;18.092;2022-10-22T09:07:10;6.97;;;4.93;;
7426;SDS011;3755;59.316;18.092;2022-10-22T09:40:53;6.75;;;4.75;;
7426;SDS011;3755;59.316;18.092;2022-10-22T09:43:37;10.63;;;5.28;;
7426;SDS011;3755;59.316;18.092;2022-10-22T09:46:19;6.22;;;4.68;;
7426;SDS011;3755;59.316;18.092;2022-10-22T09:48:50;7.00;;;4.70;;
7426;SDS011;3755;59.316;18.092;2022-10-22T09:51:39;5.90;;;4.72;;
7426;SDS011;3755;59.316;18.092;2022-10-22T09:54:19;8.13;;;5.10;;
7426;SDS011;3755;59.316;18.092;2022-10-22T09:56:53;6.38;;;4.68;;
7426;SDS011;3755;59.316;18.092;2022-10-22T09:59:37;7.35;;;5.20;;
7426;SDS011;3755;59.316;18.092;2022-10-22T10:02:19;7.05;;;5.47;;
7426;SDS011;3755;59.316;18.092;2022-10-22T10:05:02;7.35;;;5.35;;
7426;SDS011;3755;59.316;18.092;2022-10-22T10:07:33;5.30;;;4.65;;
7426;SDS011;3755;59.316;18.092;2022-10-22T10:10:14;6.53;;;4.75;;
7426;SDS011;3755;59.316;18.092;2022-10-22T10:13:02;8.75;;;5.72;;
7426;SDS011;3755;59.316;18.092;2022-10-22T10:15:54;9.30;;;5.90;;
7426;SDS011;3755;59.316;18.092;2022-10-22T10:18:29;8.65;;;5.53;;
7426;SDS011;3755;59.316;18.092;2022-10-22T10:21:24;8.35;;;5.60;;
7426;SDS011;3755;59.316;18.092;2022-10-22T10:24:15;8.07;;;6.00;;
7426;SDS011;3755;59.316;18.092;2022-10-22T10:26:57;7.93;;;5.30;;
7426;SDS011;3755;59.316;18.092;2022-10-22T10:29:41;8.43;;;5.75;;
7426;SDS011;3755;59.316;18.092;2022-10-22T10:32:32;8.10;;;5.57;;
7426;SDS011;3755;59.316;18.092;2022-10-22T10:35:25;10.68;;;5.93;;
7426;SDS011;3755;59.316;18.092;2022-10-22T10:38:09;10.45;;;6.30;;
7426;SDS011;3755;59.316;18.092;2022-10-22T10:41:16;8.65;;;5.68;;
7426;SDS011;3755;59.316;18.092;2022-10-22T10:44:14;10.95;;;6.07;;
7426;SDS011;3755;59.316;18.092;2022-10-22T10:47:23;9.10;;;6.35;;
7426;SDS011;3755;59.316;18.092;2022-10-22T10:50:33;10.20;;;5.80;;
7426;SDS011;3755;59.316;18.092;2022-10-22T10:53:34;9.55;;;6.18;;
7426;SDS011;3755;59.316;18.092;2022-10-22T10:56:29;8.00;;;5.55;;
7426;SDS011;3755;59.316;18.092;2022-10-22T11:02:30;7.68;;;5.80;;
7426;SDS011;3755;59.316;18.092;2022-10-22T11:05:21;7.93;;;6.18;;
7426;SDS011;3755;59.316;18.092;2022-10-22T11:08:21;9.77;;;6.40;;
7426;SDS011;3755;59.316;18.092;2022-10-22T11:11:00;9.80;;;6.28;;
7426;SDS011;3755;59.316;18.092;2022-10-22T11:13:46;9.00;;;5.85;;
7426;SDS011;3755;59.316;18.092;2022-10-22T11:16:37;10.20;;;6.35;;
7426;SDS011;3755;59.316;18.092;2022-10-22T11:19:35;8.95;;;5.97;;
7426;SDS011;3755;59.316;18.092;2022-10-22T11:22:22;8.43;;;6.85;;
7426;SDS011;3755;59.316;18.092;2022-10-22T11:25:12;9.70;;;7.10;;
7426;SDS011;3755;59.316;18.092;2022-10-22T11:27:49;12.85;;;7.07;;
7426;SDS011;3755;59.316;18.092;2022-10-22T11:30:34;11.52;;;7.15;;
7426;SDS011;3755;59.316;18.092;2022-10-22T11:33:20;12.00;;;6.47;;
7426;SDS011;3755;59.316;18.092;2022-10-22T11:36:13;11.48;;;6.95;;
7426;SDS011;3755;59.316;18.092;2022-10-22T11:38:55;8.75;;;6.95;;
7426;SDS011;3755;59.316;18.092;2022-10-22T11:41:23;11.00;;;6.65;;
7426;SDS011;3755;59.316;18.092;2022-10-22T11:44:04;11.88;;;7.05;;
7426;SDS011;3755;59.316;18.092;2022-10-22T11:46:44;10.75;;;7.30;;
7426;SDS011;3755;59.316;18.092;2022-10-22T11:49:42;21.70;;;8.95;;
7426;SDS011;3755;59.316;18.092;2022-10-22T11:52:25;8.73;;;6.75;;
7426;SDS011;3755;59.316;18.092;2022-10-22T11:55:10;10.50;;;7.50;;
7426;SDS011;3755;59.316;18.092;2022-10-22T11:57:58;10.93;;;7.53;;
7426;SDS011;3755;59.316;18.092;2022-10-22T12:00:33;10.77;;;7.40;;
7426;SDS011;3755;59.316;18.092;2022-10-22T12:03:14;10.75;;;7.15;;
7426;SDS011;3755;59.316;18.092;2022-10-22T12:06:15;9.20;;;6.80;;
7426;SDS011;3755;59.316;18.092;2022-10-22T12:08:57;9.23;;;7.22;;
7426;SDS011;3755;59.316;18.092;2022-10-22T12:11:40;9.90;;;7.15;;
7426;SDS011;3755;59.316;18.092;2022-10-22T12:14:31;9.82;;;7.25;;
7426;SDS011;3755;59.316;18.092;2022-10-22T12:17:09;9.63;;;7.70;;
7426;SDS011;3755;59.316;18.092;2022-10-22T12:19:42;12.43;;;7.68;;
7426;SDS011;3755;59.316;18.092;2022-10-22T12:22:16;14.55;;;8.10;;
7426;SDS011;3755;59.316;18.092;2022-10-22T12:24:46;11.60;;;8.10;;
7426;SDS011;3755;59.316;18.092;2022-10-22T12:27:33;11.40;;;8.20;;
7426;SDS011;3755;59.316;18.092;2022-10-22T12:30:14;11.35;;;8.63;;
7426;SDS011;3755;59.316;18.092;2022-10-22T12:32:43;13.65;;;9.20;;
7426;SDS011;3755;59.316;18.092;2022-10-22T12:35:14;17.20;;;9.05;;
7426;SDS011;3755;59.316;18.092;2022-10-22T12:38:01;10.95;;;8.60;;
7426;SDS011;3755;59.316;18.092;2022-10-22T12:40:32;12.07;;;8.38;;
7426;SDS011;3755;59.316;18.092;2022-10-22T12:43:06;13.80;;;8.73;;
7426;SDS011;3755;59.316;18.092;2022-10-22T12:45:37;11.57;;;9.07;;
7426;SDS011;3755;59.316;18.092;2022-10-22T12:48:05;11.10;;;8.98;;
7426;SDS011;3755;59.316;18.092;2022-10-22T12:50:39;13.73;;;8.85;;
7426;SDS011;3755;59.316;18.092;2022-10-22T12:53:32;11.82;;;8.98;;
7426;SDS011;3755;59.316;18.092;2022-10-22T12:56:20;10.75;;;8.43;;
7426;SDS011;3755;59.316;18.092;2022-10-22T12:59:05;12.77;;;8.30;;
7426;SDS011;3755;59.316;18.092;2022-10-22T13:01:40;14.25;;;8.75;;
7426;SDS011;3755;59.316;18.092;2022-10-22T13:04:32;13.68;;;9.10;;
7426;SDS011;3755;59.316;18.092;2022-10-22T13:07:05;13.65;;;9.20;;
7426;SDS011;3755;59.316;18.092;2022-10-22T13:09:56;15.57;;;9.80;;
7426;SDS011;3755;59.316;18.092;2022-10-22T13:12:26;11.23;;;8.65;;
7426;SDS011;3755;59.316;18.092;2022-10-22T13:18:01;12.27;;;9.07;;
7426;SDS011;3755;59.316;18.092;2022-10-22T13:20:51;12.73;;;9.07;;
7426;SDS011;3755;59.316;18.092;2022-10-22T13:23:24;13.52;;;8.98;;
7426;SDS011;3755;59.316;18.092;2022-10-22T13:26:15;14.90;;;9.75;;
7426;SDS011;3755;59.316;18.092;2022-10-22T13:28:56;13.85;;;10.02;;
7426;SDS011;3755;59.316;18.092;2022-10-22T13:31:43;15.85;;;10.18;;
7426;SDS011;3755;59.316;18.092;2022-10-22T13:34:14;13.37;;;10.00;;
7426;SDS011;3755;59.316;18.092;2022-10-22T13:36:47;12.10;;;9.38;;
7426;SDS011;3755;59.316;18.092;2022-10-22T13:39:30;15.15;;;10.40;;
7426;SDS011;3755;59.316;18.092;2022-10-22T13:42:18;14.85;;;10.43;;
7426;SDS011;3755;59.316;18.092;2022-10-22T13:44:50;15.50;;;10.52;;
7426;SDS011;3755;59.316;18.092;2022-10-22T13:47:22;16.70;;;10.20;;
7426;SDS011;3755;59.316;18.092;2022-10-22T13:50:30;14.15;;;9.90;;
7426;SDS011;3755;59.316;18.092;2022-10-22T13:53:02;12.73;;;9.50;;
7426;SDS011;3755;59.316;18.092;2022-10-22T13:55:32;12.18;;;9.50;;
7426;SDS011;3755;59.316;18.092;2022-10-22T14:01:19;15.05;;;9.07;;
7426;SDS011;3755;59.316;18.092;2022-10-22T14:03:50;12.88;;;8.15;;
7426;SDS011;3755;59.316;18.092;2022-10-22T14:06:24;16.08;;;9.05;;
7426;SDS011;3755;59.316;18.092;2022-10-22T14:08:59;14.80;;;9.32;;
7426;SDS011;3755;59.316;18.092;2022-10-22T14:11:32;17.40;;;9.00;;
7426;SDS011;3755;59.316;18.092;2022-10-22T14:14:00;12.07;;;9.43;;
7426;SDS011;3755;59.316;18.092;2022-10-22T14:16:42;14.25;;;9.68;;
7426;SDS011;3755;59.316;18.092;2022-10-22T14:19:27;20.48;;;10.40;;
7426;SDS011;3755;59.316;18.092;2022-10-22T14:21:56;17.35;;;9.98;;
7426;SDS011;3755;59.316;18.092;2022-10-22T14:24:32;12.90;;;9.40;;
7426;SDS011;3755;59.316;18.092;2022-10-22T14:27:00;13.65;;;9.75;;
7426;SDS011;3755;59.316;18.092;2022-10-22T14:29:29;13.45;;;9.52;;
7426;SDS011;3755;59.316;18.092;2022-10-22T14:32:05;12.88;;;9.02;;
7426;SDS011;3755;59.316;18.092;2022-10-22T14:34:52;17.30;;;9.80;;
7426;SDS011;3755;59.316;18.092;2022-10-22T14:37:19;11.55;;;8.98;;
7426;SDS011;3755;59.316;18.092;2022-10-22T14:39:50;16.27;;;9.77;;
7426;SDS011;3755;59.316;18.092;2022-10-22T14:42:31;16.55;;;9.63;;
7426;SDS011;3755;59.316;18.092;2022-10-22T14:45:18;12.18;;;10.38;;
7426;SDS011;3755;59.316;18.092;2022-10-22T14:47:49;14.40;;;9.40;;
7426;SDS011;3755;59.316;18.092;2022-10-22T14:50:31;15.50;;;10.68;;
7426;SDS011;3755;59.316;18.092;2022-10-22T14:52:58;15.20;;;11.32;;
7426;SDS011;3755;59.316;18.092;2022-10-22T14:55:27;19.63;;;12.82;;
7426;SDS011;3755;59.316;18.092;2022-10-22T14:57:55;20.80;;;13.40;;
7426;SDS011;3755;59.316;18.092;2022-10-22T15:00:39;21.00;;;13.50;;
7426;SDS011;3755;59.316;18.092;2022-10-22T15:03:23;20.27;;;12.02;;
7426;SDS011;3755;59.316;18.092;2022-10-22T15:06:05;18.33;;;11.57;;
7426;SDS011;3755;59.316;18.092;2022-10-22T15:08:56;18.08;;;12.43;;
7426;SDS011;3755;59.316;18.092;2022-10-22T15:11:38;18.95;;;12.98;;
7426;SDS011;3755;59.316;18.092;2022-10-22T15:14:10;16.83;;;12.48;;
7426;SDS011;3755;59.316;18.092;2022-10-22T15:16:53;17.17;;;12.45;;
7426;SDS011;3755;59.316;18.092;2022-10-22T15:19:40;17.42;;;11.85;;
7426;SDS011;3755;59.316;18.092;2022-10-22T15:22:24;19.10;;;12.73;;
7426;SDS011;3755;59.316;18.092;2022-10-22T15:25:12;20.23;;;13.02;;
7426;SDS011;3755;59.316;18.092;2022-10-22T15:27:55;21.52;;;14.07;;
7426;SDS011;3755;59.316;18.092;2022-10-22T15:30:40;19.47;;;13.40;;
7426;SDS011;3755;59.316;18.092;2022-10-22T15:33:24;19.77;;;14.15;;
7426;SDS011;3755;59.316;18.092;2022-10-22T15:36:15;20.43;;;14.10;;
7426;SDS011;3755;59.316;18.092;2022-10-22T15:39:16;21.27;;;15.05;;
7426;SDS011;3755;59.316;18.092;2022-10-22T15:42:00;20.87;;;14.97;;
7426;SDS011;3755;59.316;18.092;2022-10-22T15:44:41;21.63;;;15.30;;
7426;SDS011;3755;59.316;18.092;2022-10-22T15:47:20;26.02;;;16.25;;
7426;SDS011;3755;59.316;18.092;2022-10-22T15:49:50;27.45;;;15.93;;
7426;SDS011;3755;59.316;18.092;2022-10-22T15:52:22;27.93;;;16.77;;
7426;SDS011;3755;59.316;18.092;2022-10-22T15:55:07;20.70;;;15.55;;
7426;SDS011;3755;59.316;18.092;2022-10-22T15:57:35;24.58;;;16.20;;
7426;SDS011;3755;59.316;18.092;2022-10-22T16:00:06;21.70;;;15.82;;
7426;SDS011;3755;59.316;18.092;2022-10-22T16:02:48;24.25;;;16.15;;
7426;SDS011;3755;59.316;18.092;2022-10-22T16:05:16;22.52;;;16.05;;
7426;SDS011;3755;59.316;18.092;2022-10-22T16:07:57;24.80;;;17.33;;
7426;SDS011;3755;59.316;18.092;2022-10-22T16:10:43;23.33;;;16.92;;
7426;SDS011;3755;59.316;18.092;2022-10-22T16:13:12;28.27;;;17.48;;
7426;SDS011;3755;59.316;18.092;2022-10-22T16:16:03;22.45;;;16.60;;
7426;SDS011;3755;59.316;18.092;2022-10-22T16:18:45;25.98;;;16.85;;
7426;SDS011;3755;59.316;18.092;2022-10-22T16:21:15;22.30;;;17.10;;
7426;SDS011;3755;59.316;18.092;2022-10-22T16:33:27;26.58;;;17.58;;
7426;SDS011;3755;59.316;18.092;2022-10-22T16:35:56;26.50;;;16.75;;
7426;SDS011;3755;59.316;18.092;2022-10-22T16:38:39;22.30;;;16.67;;
7426;SDS011;3755;59.316;18.092;2022-10-22T16:41:21;27.85;;;16.75;;
7426;SDS011;3755;59.316;18.092;2022-10-22T16:44:04;24.33;;;17.83;;
7426;SDS011;3755;59.316;18.092;2022-10-22T16:46:56;25.13;;;17.77;;
7426;SDS011;3755;59.316;18.092;2022-10-22T16:49:39;25.35;;;18.10;;
7426;SDS011;3755;59.316;18.092;2022-10-22T16:52:21;27.60;;;18.33;;
7426;SDS011;3755;59.316;18.092;2022-10-22T16:54:49;31.35;;;18.70;;
7426;SDS011;3755;59.316;18.092;2022-10-22T16:57:27;28.02;;;18.50;;
7426;SDS011;3755;59.316;18.092;2022-10-22T16:59:56;27.77;;;19.23;;
7426;SDS011;3755;59.316;18.092;2022-10-22T17:02:38;28.95;;;20.15;;
7426;SDS011;3755;59.316;18.092;2022-10-22T17:11:37;31.70;;;21.33;;
7426;SDS011;3755;59.316;18.092;2022-10-22T17:14:18;31.47;;;19.50;;
7426;SDS011;3755;59.316;18.092;2022-10-22T17:16:59;32.07;;;19.70;;
7426;SDS011;3755;59.316;18.092;2022-10-22T17:19:27;33.80;;;21.07;;
7426;SDS011;3755;59.316;18.092;2022-10-22T17:21:55;30.63;;;20.87;;
7426;SDS011;3755;59.316;18.092;2022-10-22T17:24:32;34.17;;;21.73;;
7426;SDS011;3755;59.316;18.092;2022-10-22T17:30:14;26.45;;;20.23;;
7426;SDS011;3755;59.316;18.092;2022-10-22T17:32:47;30.23;;;21.17;;
7426;SDS011;3755;59.316;18.092;2022-10-22T17:35:15;36.67;;;22.55;;